createdAt,value
2022-09-03T00:00:41.565Z,15.35
2022-09-03T00:01:50.785Z,15.34
2022-09-03T00:02:59.847Z,15.27
2022-09-03T00:04:08.942Z,15.32
2022-09-03T00:05:19.588Z,15.29
2022-09-03T00:06:26.270Z,15.27
2022-09-03T00:07:35.920Z,15.23
2022-09-03T00:08:44.333Z,15.23
2022-09-03T00:09:54.733Z,15.22
2022-09-03T00:10:59.904Z,15.21
2022-09-03T00:12:09.754Z,15.19
2022-09-03T00:13:16.415Z,15.18
2022-09-03T00:14:24.235Z,15.16
2022-09-03T00:15:27.248Z,15.15
2022-09-03T00:16:35.293Z,15.13
2022-09-03T00:17:41.276Z,15.10
2022-09-03T00:18:48.605Z,15.10
2022-09-03T00:19:55.838Z,15.09
2022-09-03T00:21:08.359Z,15.07
2022-09-03T00:22:15.733Z,15.04
2022-09-03T00:23:22.876Z,15.02
2022-09-03T00:24:30.069Z,15.00
2022-09-03T00:25:40.602Z,14.99
2022-09-03T00:26:46.907Z,14.94
2022-09-03T00:27:55.304Z,14.94
2022-09-03T00:29:03.669Z,14.94
2022-09-03T00:30:11.221Z,14.92
2022-09-03T00:31:20.656Z,14.89
2022-09-03T00:32:29.424Z,14.88
2022-09-03T00:33:33.836Z,14.86
2022-09-03T00:34:41.449Z,14.84
2022-09-03T00:35:47.956Z,14.82
2022-09-03T00:36:51.240Z,14.82
2022-09-03T00:37:54.125Z,14.80
2022-09-03T00:38:59.087Z,14.79
2022-09-03T00:40:03.009Z,14.77
2022-09-03T00:41:16.828Z,14.77
2022-09-03T00:42:31.911Z,14.75
2022-09-03T00:43:49.990Z,14.74
2022-09-03T00:45:11.767Z,14.71
2022-09-03T00:46:23.036Z,14.69
2022-09-03T00:47:31.488Z,14.69
2022-09-03T00:48:48.258Z,14.66
2022-09-03T00:50:01.730Z,14.65
2022-09-03T00:51:16.970Z,14.63
2022-09-03T00:52:33.621Z,14.62
2022-09-03T00:53:44.650Z,14.61
2022-09-03T00:54:53.220Z,14.59
2022-09-03T00:55:59.620Z,14.58
2022-09-03T00:57:25.646Z,14.57
2022-09-03T00:58:44.919Z,14.54
2022-09-03T00:59:57.446Z,14.50
2022-09-03T01:01:01.860Z,14.52
2022-09-03T01:02:13.079Z,14.50
2022-09-03T01:03:26.748Z,14.49
2022-09-03T01:04:41.809Z,14.47
2022-09-03T01:06:03.390Z,14.45
2022-09-03T01:07:15.876Z,14.43
2022-09-03T01:08:32.920Z,14.43
2022-09-03T01:09:49.102Z,14.41
2022-09-03T01:11:01.382Z,14.39
2022-09-03T01:12:14.741Z,14.39
2022-09-03T01:13:23.547Z,14.34
2022-09-03T01:14:39.139Z,14.37
2022-09-03T01:15:49.983Z,14.35
2022-09-03T01:16:57.238Z,14.33
2022-09-03T01:18:15.331Z,14.32
2022-09-03T01:19:45.876Z,14.29
2022-09-03T01:20:59.760Z,14.26
2022-09-03T01:22:21.091Z,14.25
2022-09-03T01:23:58.033Z,14.22
2022-09-03T01:25:12.043Z,14.20
2022-09-03T01:26:30.225Z,14.17
2022-09-03T01:27:43.944Z,14.15
2022-09-03T01:29:01.560Z,14.13
2022-09-03T01:30:06.688Z,14.11
2022-09-03T01:31:21.297Z,14.09
2022-09-03T01:32:29.548Z,14.08
2022-09-03T01:33:38.739Z,14.07
2022-09-03T01:34:53.887Z,14.05
2022-09-03T01:36:09.433Z,14.04
2022-09-03T01:37:20.370Z,14.00
2022-09-03T01:38:32.405Z,14.02
2022-09-03T01:39:47.040Z,14.00
2022-09-03T01:41:21.555Z,14.00
2022-09-03T01:42:34.829Z,14.00
2022-09-03T01:43:47.941Z,13.98
2022-09-03T01:45:22.174Z,13.98
2022-09-03T01:46:26.556Z,13.95
2022-09-03T01:47:39.284Z,13.94
2022-09-03T01:48:46.281Z,13.93
2022-09-03T01:49:57.935Z,13.92
2022-09-03T01:51:11.124Z,13.91
2022-09-03T01:52:17.097Z,13.90
2022-09-03T01:53:41.899Z,13.88
2022-09-03T01:55:02.343Z,13.86
2022-09-03T01:56:21.102Z,13.76
2022-09-03T01:57:50.229Z,13.83
2022-09-03T01:59:01.864Z,13.82
2022-09-03T02:00:10.640Z,13.81
2022-09-03T02:01:23.760Z,13.79
2022-09-03T02:02:27.535Z,13.78
2022-09-03T02:03:40.871Z,13.78
2022-09-03T02:04:43.541Z,13.77
2022-09-03T02:05:46.986Z,13.75
2022-09-03T02:06:49.263Z,13.74
2022-09-03T02:07:57.887Z,13.73
2022-09-03T02:08:59.872Z,13.72
2022-09-03T02:10:06.091Z,13.70
2022-09-03T02:11:11.501Z,13.70
2022-09-03T02:12:18.715Z,13.68
2022-09-03T02:13:27.274Z,13.67
2022-09-03T02:14:30.268Z,13.61
2022-09-03T02:15:38.544Z,13.66
2022-09-03T02:16:40.564Z,13.64
2022-09-03T02:17:46.683Z,13.64
2022-09-03T02:18:54.238Z,13.61
2022-09-03T02:19:57.915Z,13.61
2022-09-03T02:21:01.264Z,13.60
2022-09-03T02:22:05.159Z,13.59
2022-09-03T02:23:07.309Z,13.59
2022-09-03T02:24:10.543Z,13.58
2022-09-03T02:25:13.055Z,13.57
2022-09-03T02:26:20.267Z,13.56
2022-09-03T02:27:22.403Z,13.56
2022-09-03T02:28:27.504Z,13.56
2022-09-03T02:29:29.729Z,13.54
2022-09-03T02:30:34.183Z,13.53
2022-09-03T02:31:36.521Z,13.53
2022-09-03T02:32:39.718Z,13.52
2022-09-03T02:33:46.322Z,13.52
2022-09-03T02:34:48.396Z,13.49
2022-09-03T02:35:52.065Z,13.49
2022-09-03T02:36:54.543Z,13.49
2022-09-03T02:37:57.513Z,13.48
2022-09-03T02:38:59.474Z,13.47
2022-09-03T02:40:06.290Z,13.46
2022-09-03T02:41:08.355Z,13.46
2022-09-03T02:42:13.672Z,13.45
2022-09-03T02:43:20.248Z,13.44
2022-09-03T02:44:32.533Z,13.42
2022-09-03T02:45:39.773Z,13.40
2022-09-03T02:46:46.371Z,13.40
2022-09-03T02:47:52.518Z,13.39
2022-09-03T02:48:56.002Z,13.39
2022-09-03T02:49:57.989Z,13.37
2022-09-03T02:51:01.093Z,13.36
2022-09-03T02:52:06.484Z,13.34
2022-09-03T02:53:09.858Z,13.33
2022-09-03T02:54:14.984Z,13.32
2022-09-03T02:55:22.070Z,13.31
2022-09-03T02:56:28.067Z,13.29
2022-09-03T02:57:31.182Z,13.29
2022-09-03T02:58:33.335Z,13.28
2022-09-03T02:59:36.652Z,13.26
2022-09-03T03:00:40.242Z,13.25
2022-09-03T03:01:43.397Z,13.24
2022-09-03T03:02:48.765Z,13.23
2022-09-03T03:03:52.414Z,13.22
2022-09-03T03:04:55.672Z,13.20
2022-09-03T03:06:01.705Z,13.19
2022-09-03T03:07:03.835Z,13.17
2022-09-03T03:08:06.915Z,13.15
2022-09-03T03:09:09.013Z,13.16
2022-09-03T03:10:12.640Z,13.12
2022-09-03T03:11:18.408Z,13.14
2022-09-03T03:12:21.560Z,13.13
2022-09-03T03:13:23.839Z,13.13
2022-09-03T03:14:26.974Z,13.10
2022-09-03T03:15:29.030Z,13.10
2022-09-03T03:16:33.613Z,13.06
2022-09-03T03:17:35.699Z,13.07
2022-09-03T03:18:39.351Z,13.05
2022-09-03T03:19:41.453Z,13.03
2022-09-03T03:20:45.637Z,13.02
2022-09-03T03:21:47.777Z,13.01
2022-09-03T03:22:50.978Z,12.99
2022-09-03T03:23:53.140Z,12.99
2022-09-03T03:24:57.782Z,12.97
2022-09-03T03:26:01.782Z,12.96
2022-09-03T03:27:07.249Z,12.92
2022-09-03T03:28:09.876Z,12.90
2022-09-03T03:29:17.938Z,12.92
2022-09-03T03:30:20.994Z,12.90
2022-09-03T03:31:24.592Z,12.88
2022-09-03T03:32:28.395Z,12.86
2022-09-03T03:33:31.438Z,12.85
2022-09-03T03:34:33.558Z,12.83
2022-09-03T03:35:37.537Z,12.83
2022-09-03T03:36:41.125Z,12.81
2022-09-03T03:37:43.200Z,12.78
2022-09-03T03:38:46.730Z,12.78
2022-09-03T03:39:49.011Z,12.77
2022-09-03T03:40:52.610Z,12.76
2022-09-03T03:41:54.664Z,12.75
2022-09-03T03:42:59.480Z,12.74
2022-09-03T03:44:03.727Z,12.72
2022-09-03T03:45:07.739Z,12.71
2022-09-03T03:46:10.815Z,12.71
2022-09-03T03:47:16.908Z,12.71
2022-09-03T03:48:20.412Z,12.70
2022-09-03T03:49:23.505Z,12.69
2022-09-03T03:50:25.714Z,12.61
2022-09-03T03:51:30.449Z,12.68
2022-09-03T03:52:32.627Z,12.66
2022-09-03T03:53:37.038Z,12.66
2022-09-03T03:54:39.141Z,12.65
2022-09-03T03:55:42.239Z,12.63
2022-09-03T03:56:44.271Z,12.62
2022-09-03T03:57:49.998Z,12.62
2022-09-03T03:58:52.850Z,12.62
2022-09-03T03:59:55.903Z,12.61
2022-09-03T04:01:05.420Z,12.60
2022-09-03T04:02:08.513Z,12.54
2022-09-03T04:03:10.574Z,12.59
2022-09-03T04:04:15.092Z,12.57
2022-09-03T04:05:17.086Z,12.56
2022-09-03T04:06:26.265Z,12.55
2022-09-03T04:07:28.368Z,12.54
2022-09-03T04:08:31.865Z,12.52
2022-09-03T04:09:34.235Z,12.51
2022-09-03T04:10:37.500Z,12.51
2022-09-03T04:11:39.628Z,12.49
2022-09-03T04:12:43.394Z,12.45
2022-09-03T04:13:46.884Z,12.47
2022-09-03T04:14:49.992Z,12.44
2022-09-03T04:15:52.724Z,12.41
2022-09-03T04:16:56.957Z,12.40
2022-09-03T04:17:59.282Z,12.42
2022-09-03T04:19:02.337Z,12.42
2022-09-03T04:20:07.379Z,12.41
2022-09-03T04:21:13.061Z,12.39
2022-09-03T04:22:15.876Z,12.39
2022-09-03T04:23:19.063Z,12.39
2022-09-03T04:24:21.230Z,12.36
2022-09-03T04:25:25.283Z,12.35
2022-09-03T04:26:31.447Z,12.34
2022-09-03T04:27:34.658Z,12.32
2022-09-03T04:28:37.154Z,12.30
2022-09-03T04:29:40.241Z,12.29
2022-09-03T04:30:42.336Z,12.28
2022-09-03T04:32:01.728Z,12.25
2022-09-03T04:33:04.938Z,12.24
2022-09-03T04:34:07.028Z,12.21
2022-09-03T04:35:11.632Z,12.14
2022-09-03T04:36:17.371Z,12.19
2022-09-03T04:37:20.622Z,12.18
2022-09-03T04:38:23.190Z,12.17
2022-09-03T04:39:26.791Z,12.16
2022-09-03T04:40:28.949Z,12.15
2022-09-03T04:41:32.789Z,12.14
2022-09-03T04:42:34.873Z,12.13
2022-09-03T04:43:38.815Z,12.13
2022-09-03T04:44:41.264Z,12.09
2022-09-03T04:45:44.416Z,12.11
2022-09-03T04:46:47.960Z,12.08
2022-09-03T04:47:58.152Z,12.09
2022-09-03T04:49:01.901Z,12.09
2022-09-03T04:50:04.568Z,12.04
2022-09-03T04:51:10.977Z,12.08
2022-09-03T04:52:13.061Z,12.08
2022-09-03T04:53:16.141Z,12.09
2022-09-03T04:54:18.258Z,12.09
2022-09-03T04:55:21.380Z,12.10
2022-09-03T04:56:25.307Z,12.10
2022-09-03T04:57:34.401Z,12.11
2022-09-03T04:58:36.502Z,12.13
2022-09-03T04:59:42.767Z,12.07
2022-09-03T05:00:44.854Z,12.13
2022-09-03T05:01:48.056Z,12.12
2022-09-03T05:02:51.923Z,12.12
2022-09-03T05:03:55.312Z,12.13
2022-09-03T05:04:57.457Z,12.13
2022-09-03T05:06:00.504Z,12.13
2022-09-03T05:07:05.147Z,12.11
2022-09-03T05:08:07.365Z,11.84
2022-09-03T05:09:10.452Z,12.08
2022-09-03T05:10:20.303Z,12.13
2022-09-03T05:11:24.342Z,12.12
2022-09-03T05:12:26.613Z,12.12
2022-09-03T05:13:29.619Z,12.11
2022-09-03T05:14:31.713Z,12.13
2022-09-03T05:15:34.816Z,12.14
2022-09-03T05:16:36.906Z,12.13
2022-09-03T05:17:40.186Z,12.16
2022-09-03T05:18:42.486Z,12.17
2022-09-03T05:19:45.535Z,12.18
2022-09-03T05:20:47.619Z,12.21
2022-09-03T05:21:50.741Z,12.23
2022-09-03T05:22:54.258Z,12.24
2022-09-03T05:23:57.410Z,12.22
2022-09-03T05:24:59.476Z,12.29
2022-09-03T05:26:03.959Z,12.31
2022-09-03T05:27:06.008Z,12.30
2022-09-03T05:28:09.478Z,12.35
2022-09-03T05:29:11.556Z,12.36
2022-09-03T05:30:15.141Z,12.38
2022-09-03T05:31:19.650Z,12.38
2022-09-03T05:32:22.719Z,12.42
2022-09-03T05:33:24.944Z,12.42
2022-09-03T05:34:28.069Z,12.43
2022-09-03T05:35:30.490Z,12.44
2022-09-03T05:36:35.979Z,12.46
2022-09-03T05:37:38.267Z,12.49
2022-09-03T05:38:43.381Z,12.52
2022-09-03T05:39:45.515Z,12.55
2022-09-03T05:40:48.600Z,12.57
2022-09-03T05:41:52.370Z,12.60
2022-09-03T05:42:59.842Z,12.62
2022-09-03T05:44:02.321Z,12.66
2022-09-03T05:45:10.919Z,12.69
2022-09-03T05:46:15.464Z,12.73
2022-09-03T05:47:18.666Z,12.76
2022-09-03T05:48:20.753Z,12.80
2022-09-03T05:49:24.518Z,12.83
2022-09-03T05:50:26.708Z,12.86
2022-09-03T05:51:31.041Z,12.90
2022-09-03T05:52:33.165Z,12.94
2022-09-03T05:53:38.008Z,12.99
2022-09-03T05:54:42.545Z,13.02
2022-09-03T05:55:44.703Z,13.06
2022-09-03T05:56:47.858Z,13.09
2022-09-03T05:57:52.247Z,13.12
2022-09-03T05:58:57.726Z,12.94
2022-09-03T06:00:01.536Z,13.19
2022-09-03T06:01:10.513Z,13.25
2022-09-03T06:02:13.634Z,13.28
2022-09-03T06:03:16.323Z,13.32
2022-09-03T06:04:19.914Z,13.36
2022-09-03T06:05:21.984Z,13.39
2022-09-03T06:06:26.082Z,13.42
2022-09-03T06:07:29.516Z,13.47
2022-09-03T06:08:31.585Z,13.51
2022-09-03T06:09:34.646Z,13.55
2022-09-03T06:10:41.023Z,13.58
2022-09-03T06:11:45.538Z,13.63
2022-09-03T06:12:51.521Z,13.66
2022-09-03T06:13:55.024Z,13.70
2022-09-03T06:14:57.111Z,13.63
2022-09-03T06:16:01.664Z,13.78
2022-09-03T06:17:04.495Z,13.82
2022-09-03T06:18:07.920Z,13.85
2022-09-03T06:19:11.354Z,13.90
2022-09-03T06:20:14.531Z,13.93
2022-09-03T06:21:16.675Z,13.97
2022-09-03T06:22:19.756Z,14.01
2022-09-03T06:23:22.070Z,14.06
2022-09-03T06:24:28.394Z,14.10
2022-09-03T06:25:31.868Z,14.14
2022-09-03T06:26:36.706Z,14.18
2022-09-03T06:27:38.808Z,14.22
2022-09-03T06:28:44.447Z,14.23
2022-09-03T06:29:47.533Z,14.31
2022-09-03T06:30:49.642Z,14.35
2022-09-03T06:31:52.758Z,14.39
2022-09-03T06:32:54.844Z,14.42
2022-09-03T06:34:03.361Z,14.45
2022-09-03T06:35:08.787Z,14.51
2022-09-03T06:36:13.390Z,14.52
2022-09-03T06:37:16.494Z,14.58
2022-09-03T06:38:19.168Z,14.61
2022-09-03T06:39:22.268Z,14.65
2022-09-03T06:40:25.976Z,14.68
2022-09-03T06:41:33.091Z,14.72
2022-09-03T06:42:36.652Z,14.75
2022-09-03T06:43:42.357Z,14.73
2022-09-03T06:44:45.303Z,14.80
2022-09-03T06:45:56.120Z,14.82
2022-09-03T06:47:01.485Z,14.86
2022-09-03T06:48:03.851Z,14.88
2022-09-03T06:49:08.429Z,14.92
2022-09-03T06:50:10.571Z,14.95
2022-09-03T06:51:15.362Z,14.98
2022-09-03T06:52:18.436Z,15.00
2022-09-03T06:53:20.498Z,14.98
2022-09-03T06:54:25.251Z,15.08
2022-09-03T06:55:27.410Z,15.12
2022-09-03T06:56:36.091Z,15.15
2022-09-03T06:57:42.649Z,15.20
2022-09-03T06:58:48.743Z,15.24
2022-09-03T06:59:50.783Z,15.28
2022-09-03T07:00:54.334Z,15.32
2022-09-03T07:01:59.217Z,15.36
2022-09-03T07:03:03.093Z,15.40
2022-09-03T07:04:06.848Z,15.43
2022-09-03T07:05:09.340Z,15.47
2022-09-03T07:06:14.748Z,15.50
2022-09-03T07:07:18.618Z,15.54
2022-09-03T07:08:20.672Z,15.58
2022-09-03T07:09:23.817Z,15.62
2022-09-03T07:10:27.446Z,15.65
2022-09-03T07:11:33.506Z,15.69
2022-09-03T07:12:37.506Z,15.73
2022-09-03T07:13:45.005Z,15.78
2022-09-03T07:14:47.469Z,15.78
2022-09-03T07:16:01.169Z,15.85
2022-09-03T07:17:04.281Z,15.91
2022-09-03T07:18:06.437Z,15.92
2022-09-03T07:19:09.984Z,15.97
2022-09-03T07:20:12.082Z,16.01
2022-09-03T07:21:17.724Z,16.05
2022-09-03T07:22:20.821Z,16.08
2022-09-03T07:23:22.930Z,16.12
2022-09-03T07:24:27.750Z,16.14
2022-09-03T07:25:30.930Z,16.17
2022-09-03T07:26:36.187Z,16.21
2022-09-03T07:27:38.360Z,16.23
2022-09-03T07:28:45.999Z,16.28
2022-09-03T07:29:48.026Z,16.32
2022-09-03T07:30:51.185Z,16.36
2022-09-03T07:31:54.340Z,16.41
2022-09-03T07:32:56.496Z,16.45
2022-09-03T07:34:00.316Z,16.48
2022-09-03T07:35:02.548Z,16.52
2022-09-03T07:36:08.685Z,16.56
2022-09-03T07:37:11.792Z,16.60
2022-09-03T07:38:17.740Z,16.64
2022-09-03T07:39:21.371Z,16.66
2022-09-03T07:40:23.515Z,16.71
2022-09-03T07:41:28.896Z,16.73
2022-09-03T07:42:31.308Z,16.78
2022-09-03T07:43:37.994Z,16.81
2022-09-03T07:44:41.556Z,16.85
2022-09-03T07:45:51.845Z,16.88
2022-09-03T07:46:55.778Z,16.91
2022-09-03T07:47:57.953Z,16.96
2022-09-03T07:49:02.859Z,17.00
2022-09-03T07:50:05.610Z,17.04
2022-09-03T07:51:09.619Z,17.08
2022-09-03T07:52:11.990Z,17.13
2022-09-03T07:53:18.045Z,17.16
2022-09-03T07:54:21.834Z,17.21
2022-09-03T07:55:24.916Z,17.24
2022-09-03T07:56:31.158Z,17.29
2022-09-03T07:57:33.231Z,17.34
2022-09-03T07:58:37.914Z,17.37
2022-09-03T07:59:41.982Z,17.42
2022-09-03T08:00:45.112Z,17.42
2022-09-03T08:01:47.305Z,17.51
2022-09-03T08:02:50.379Z,17.54
2022-09-03T08:03:56.131Z,17.59
2022-09-03T08:04:59.287Z,17.63
2022-09-03T08:06:02.319Z,17.65
2022-09-03T08:07:05.416Z,17.72
2022-09-03T08:08:07.831Z,17.77
2022-09-03T08:09:13.733Z,17.80
2022-09-03T08:10:16.612Z,17.85
2022-09-03T08:11:22.046Z,17.89
2022-09-03T08:12:24.272Z,17.93
2022-09-03T08:13:27.311Z,17.98
2022-09-03T08:14:31.729Z,18.03
2022-09-03T08:15:37.417Z,18.08
2022-09-03T08:16:41.964Z,18.12
2022-09-03T08:17:45.445Z,18.17
2022-09-03T08:18:47.667Z,18.22
2022-09-03T08:19:51.110Z,18.26
2022-09-03T08:20:53.224Z,18.32
2022-09-03T08:21:56.354Z,18.36
2022-09-03T08:23:01.812Z,18.39
2022-09-03T08:24:05.810Z,18.47
2022-09-03T08:25:08.370Z,18.52
2022-09-03T08:26:19.332Z,18.60
2022-09-03T08:27:26.173Z,18.66
2022-09-03T08:28:28.644Z,18.71
2022-09-03T08:29:31.746Z,18.78
2022-09-03T08:30:36.346Z,18.83
2022-09-03T08:31:39.472Z,18.89
2022-09-03T08:32:41.746Z,18.95
2022-09-03T08:33:46.272Z,19.03
2022-09-03T08:34:48.488Z,19.09
2022-09-03T08:35:54.400Z,19.17
2022-09-03T08:36:59.045Z,19.24
2022-09-03T08:38:05.406Z,19.32
2022-09-03T08:39:11.537Z,19.40
2022-09-03T08:40:14.847Z,19.45
2022-09-03T08:41:30.210Z,19.53
2022-09-03T08:42:46.480Z,19.60
2022-09-03T08:44:05.244Z,19.64
2022-09-03T08:45:16.376Z,19.66
2022-09-03T08:46:22.043Z,19.71
2022-09-03T08:47:30.203Z,19.81
2022-09-03T08:48:33.811Z,19.80
2022-09-03T08:49:46.307Z,19.88
2022-09-03T08:50:56.110Z,19.90
2022-09-03T08:52:04.212Z,19.92
2022-09-03T08:53:11.509Z,19.93
2022-09-03T08:54:15.255Z,19.95
2022-09-03T08:55:22.987Z,19.98
2022-09-03T08:56:29.949Z,20.02
2022-09-03T08:57:39.865Z,20.05
2022-09-03T08:58:44.015Z,20.09
2022-09-03T08:59:55.018Z,20.13
2022-09-03T09:01:04.809Z,20.18
2022-09-03T09:02:26.347Z,20.23
2022-09-03T09:03:42.521Z,20.27
2022-09-03T09:05:00.187Z,20.29
2022-09-03T09:06:12.748Z,20.32
2022-09-03T09:07:22.285Z,20.30
2022-09-03T09:08:33.364Z,20.37
2022-09-03T09:09:48.858Z,20.42
2022-09-03T09:11:01.805Z,20.46
2022-09-03T09:12:17.543Z,20.48
2022-09-03T09:13:28.229Z,20.51
2022-09-03T09:14:36.309Z,20.53
2022-09-03T09:15:51.695Z,20.56
2022-09-03T09:17:03.261Z,20.58
2022-09-03T09:18:16.672Z,20.58
2022-09-03T09:19:33.393Z,20.63
2022-09-03T09:20:43.062Z,20.65
2022-09-03T09:21:49.274Z,20.68
2022-09-03T09:22:57.643Z,20.72
2022-09-03T09:24:04.673Z,20.75
2022-09-03T09:25:14.381Z,20.76
2022-09-03T09:26:18.171Z,20.77
2022-09-03T09:27:21.161Z,20.79
2022-09-03T09:28:26.262Z,20.81
2022-09-03T09:29:32.319Z,20.82
2022-09-03T09:30:36.000Z,20.84
2022-09-03T09:31:38.888Z,20.86
2022-09-03T09:32:41.973Z,20.88
2022-09-03T09:33:45.494Z,20.89
2022-09-03T09:34:52.039Z,20.92
2022-09-03T09:35:54.851Z,20.93
2022-09-03T09:36:57.846Z,20.97
2022-09-03T09:38:00.375Z,21.00
2022-09-03T09:39:10.182Z,21.04
2022-09-03T09:40:28.077Z,21.07
2022-09-03T09:41:31.104Z,21.09
2022-09-03T09:42:33.227Z,21.11
2022-09-03T09:43:36.531Z,21.13
2022-09-03T09:44:40.542Z,21.17
2022-09-03T09:45:45.953Z,21.15
2022-09-03T09:46:52.670Z,21.20
2022-09-03T09:47:58.413Z,21.18
2022-09-03T09:49:02.983Z,21.17
2022-09-03T09:50:20.237Z,21.14
2022-09-03T09:51:31.127Z,21.12
2022-09-03T09:52:33.640Z,21.07
2022-09-03T09:53:36.945Z,21.03
2022-09-03T09:54:40.226Z,20.99
2022-09-03T09:55:54.518Z,20.96
2022-09-03T09:57:00.906Z,20.93
2022-09-03T09:58:14.029Z,20.90
2022-09-03T09:59:20.548Z,20.87
2022-09-03T10:00:22.656Z,20.84
2022-09-03T10:01:30.300Z,20.84
2022-09-03T10:02:36.870Z,20.83
2022-09-03T10:03:49.091Z,20.83
2022-09-03T10:04:54.105Z,20.83
2022-09-03T10:06:24.886Z,20.85
2022-09-03T10:07:30.301Z,20.83
2022-09-03T10:08:32.393Z,20.81
2022-09-03T10:09:35.330Z,20.80
2022-09-03T10:10:49.777Z,20.77
2022-09-03T10:12:04.340Z,20.75
2022-09-03T10:13:11.200Z,20.76
2022-09-03T10:14:23.293Z,20.75
2022-09-03T10:15:29.499Z,20.72
2022-09-03T10:16:37.185Z,20.73
2022-09-03T10:17:53.593Z,20.73
2022-09-03T10:19:05.918Z,20.74
2022-09-03T10:20:31.351Z,20.77
2022-09-03T10:21:43.172Z,20.84
2022-09-03T10:22:56.990Z,20.89
2022-09-03T10:24:07.244Z,20.98
2022-09-03T10:25:10.395Z,21.09
2022-09-03T10:26:16.967Z,21.20
2022-09-03T10:27:19.910Z,21.30
2022-09-03T10:28:29.474Z,21.38
2022-09-03T10:29:32.983Z,21.44
2022-09-03T10:30:47.635Z,21.48
2022-09-03T10:32:03.241Z,21.56
2022-09-03T10:33:13.727Z,21.62
2022-09-03T10:34:23.773Z,21.65
2022-09-03T10:35:31.145Z,21.65
2022-09-03T10:36:40.941Z,21.63
2022-09-03T10:37:47.630Z,21.63
2022-09-03T10:39:00.175Z,21.60
2022-09-03T10:40:17.862Z,21.64
2022-09-03T10:41:33.937Z,21.66
2022-09-03T10:42:46.608Z,21.72
2022-09-03T10:44:11.269Z,21.79
2022-09-03T10:45:19.947Z,21.86
2022-09-03T10:46:27.067Z,21.93
2022-09-03T10:47:54.345Z,21.97
2022-09-03T10:49:19.732Z,22.06
2022-09-03T10:50:26.418Z,22.13
2022-09-03T10:51:36.357Z,22.17
2022-09-03T10:52:54.205Z,22.20
2022-09-03T21:30:15.201Z,16.10
2022-09-03T21:31:22.133Z,16.10
2022-09-03T21:32:34.791Z,16.09
2022-09-03T21:33:40.518Z,16.07
2022-09-03T21:34:50.590Z,16.06
2022-09-03T21:36:01.018Z,16.05
2022-09-03T21:37:04.786Z,16.04
2022-09-03T21:38:09.899Z,16.04
2022-09-03T21:39:19.544Z,16.02
2022-09-03T21:40:29.200Z,16.01
2022-09-03T21:41:36.642Z,16.00
2022-09-03T21:42:44.795Z,15.99
2022-09-03T21:43:55.547Z,15.97
2022-09-03T21:45:01.200Z,15.96
2022-09-03T21:46:09.597Z,15.93
2022-09-03T21:47:14.985Z,15.96
2022-09-03T21:48:21.962Z,15.95
2022-09-03T21:49:30.932Z,15.94
2022-09-03T21:50:45.396Z,15.93
2022-09-03T21:51:55.586Z,15.93
2022-09-03T21:53:03.001Z,15.91
2022-09-03T21:54:10.410Z,15.78
2022-09-03T21:55:21.279Z,15.91
2022-09-03T21:56:52.044Z,15.91
2022-09-03T21:58:09.640Z,15.91
2022-09-03T21:59:23.177Z,15.89
2022-09-03T22:00:32.705Z,15.89
2022-09-03T22:01:50.498Z,15.87
2022-09-03T22:02:56.842Z,15.87
2022-09-03T22:03:59.245Z,15.85
2022-09-03T22:05:04.365Z,15.85
2022-09-03T22:06:12.943Z,15.83
2022-09-03T22:07:24.200Z,15.84
2022-09-03T22:08:37.130Z,15.84
2022-09-03T22:09:46.595Z,15.83
2022-09-03T22:10:59.355Z,15.84
2022-09-03T22:12:08.759Z,15.83
2022-09-03T22:13:18.105Z,15.83
2022-09-03T22:14:20.941Z,15.82
2022-09-03T22:15:24.062Z,15.82
2022-09-03T22:16:32.267Z,15.82
2022-09-03T22:17:47.010Z,15.81
2022-09-03T22:18:50.275Z,15.79
2022-09-03T22:19:53.281Z,15.78
2022-09-03T22:21:02.866Z,15.78
2022-09-03T22:22:13.139Z,15.76
2022-09-03T22:23:21.134Z,15.75
2022-09-03T22:24:36.011Z,15.74
2022-09-03T22:25:44.265Z,15.72
2022-09-03T22:26:56.586Z,15.71
2022-09-03T22:28:06.550Z,15.69
2022-09-03T22:29:15.470Z,15.69
2022-09-03T22:30:21.402Z,15.67
2022-09-03T22:31:36.333Z,15.67
2022-09-03T22:32:53.689Z,15.65
2022-09-03T22:34:04.275Z,15.63
2022-09-03T22:35:24.240Z,15.62
2022-09-03T22:36:34.069Z,15.61
2022-09-03T22:37:51.448Z,15.60
2022-09-03T22:39:11.775Z,15.59
2022-09-03T22:40:24.675Z,15.57
2022-09-03T22:41:53.123Z,15.56
2022-09-03T22:43:14.870Z,15.54
2022-09-03T22:44:33.140Z,15.54
2022-09-03T22:45:51.251Z,15.53
2022-09-03T22:47:09.121Z,15.52
2022-09-03T22:48:27.707Z,15.51
2022-09-03T22:49:39.153Z,15.49
2022-09-03T22:50:48.952Z,15.49
2022-09-03T22:52:03.508Z,15.48
2022-09-03T22:53:20.810Z,15.47
2022-09-03T22:54:42.699Z,15.45
2022-09-03T22:55:54.073Z,15.44
2022-09-03T22:56:59.031Z,15.44
2022-09-03T22:58:05.413Z,15.43
2022-09-03T22:59:15.020Z,15.43
2022-09-03T23:00:17.820Z,15.40
2022-09-03T23:01:25.914Z,15.41
2022-09-03T23:02:30.159Z,15.41
2022-09-03T23:03:42.116Z,15.39
2022-09-03T23:04:50.971Z,15.39
2022-09-03T23:06:00.347Z,15.37
2022-09-03T23:07:11.486Z,15.36
2022-09-03T23:08:18.952Z,15.34
2022-09-03T23:09:24.807Z,15.34
2022-09-03T23:10:31.971Z,15.32
2022-09-03T23:11:42.180Z,15.31
2022-09-03T23:12:47.990Z,15.30
2022-09-03T23:13:56.053Z,15.31
2022-09-03T23:15:01.347Z,15.24
2022-09-03T23:16:11.731Z,15.28
2022-09-03T23:17:20.300Z,15.27
2022-09-03T23:18:27.116Z,15.27
2022-09-03T23:19:38.851Z,15.26
2022-09-03T23:20:45.057Z,15.26
2022-09-03T23:21:55.816Z,15.25
2022-09-03T23:23:04.933Z,15.23
2022-09-03T23:24:14.228Z,15.22
2022-09-03T23:25:22.212Z,15.22
2022-09-03T23:26:33.417Z,15.21
2022-09-03T23:27:39.693Z,15.21
2022-09-03T23:28:48.355Z,15.20
2022-09-03T23:29:53.442Z,15.18
2022-09-03T23:31:07.035Z,15.18
2022-09-03T23:32:09.594Z,15.17
2022-09-03T23:33:12.769Z,15.16
2022-09-03T23:34:15.518Z,15.16
2022-09-03T23:35:22.180Z,15.14
2022-09-03T23:37:01.580Z,15.13
2022-09-03T23:38:15.183Z,15.12
2022-09-03T23:39:28.229Z,15.11
2022-09-03T23:40:41.473Z,15.11
2022-09-03T23:41:52.381Z,15.10
2022-09-03T23:43:18.742Z,15.09
2022-09-03T23:44:37.009Z,15.07
2022-09-03T23:45:48.933Z,15.05
2022-09-03T23:46:57.885Z,15.05
2022-09-03T23:48:10.987Z,15.04
2022-09-03T23:49:26.740Z,15.03
2022-09-03T23:50:37.469Z,15.00
2022-09-03T23:51:45.177Z,14.98
2022-09-03T23:53:02.084Z,14.97
2022-09-03T23:54:12.578Z,14.96
2022-09-03T23:55:27.090Z,14.94
2022-09-03T23:56:42.227Z,14.93
2022-09-03T23:58:45.894Z,14.92
